sensor_id;sensor_type;location;lat;lon;timestamp;P1;durP1;ratioP1;P2;durP2;ratioP2
479;SDS011;226;48.606;9.096;2023-08-31T00:00:31;5.80;;;2.70;;
479;SDS011;226;48.606;9.096;2023-08-31T00:03:00;12.97;;;2.43;;
479;SDS011;226;48.606;9.096;2023-08-31T00:05:28;4.17;;;2.80;;
479;SDS011;226;48.606;9.096;2023-08-31T00:07:57;5.70;;;2.93;;
479;SDS011;226;48.606;9.096;2023-08-31T00:10:25;2.93;;;1.90;;
479;SDS011;226;48.606;9.096;2023-08-31T00:12:54;3.57;;;2.47;;
479;SDS011;226;48.606;9.096;2023-08-31T00:15:22;2.40;;;2.20;;
479;SDS011;226;48.606;9.096;2023-08-31T00:17:51;2.70;;;2.50;;
479;SDS011;226;48.606;9.096;2023-08-31T00:20:19;5.90;;;2.20;;
479;SDS011;226;48.606;9.096;2023-08-31T00:22:48;2.40;;;2.20;;
479;SDS011;226;48.606;9.096;2023-08-31T00:25:16;4.40;;;2.70;;
479;SDS011;226;48.606;9.096;2023-08-31T00:27:44;2.90;;;2.10;;
479;SDS011;226;48.606;9.096;2023-08-31T00:30:16;4.23;;;2.83;;
479;SDS011;226;48.606;9.096;2023-08-31T00:32:44;4.90;;;2.67;;
479;SDS011;226;48.606;9.096;2023-08-31T00:35:14;3.63;;;2.87;;
479;SDS011;226;48.606;9.096;2023-08-31T00:37:42;4.70;;;2.40;;
479;SDS011;226;48.606;9.096;2023-08-31T00:40:10;7.43;;;2.83;;
479;SDS011;226;48.606;9.096;2023-08-31T00:42:40;4.10;;;2.97;;
479;SDS011;226;48.606;9.096;2023-08-31T00:45:08;4.27;;;2.70;;
479;SDS011;226;48.606;9.096;2023-08-31T00:47:39;2.73;;;2.50;;
479;SDS011;226;48.606;9.096;2023-08-31T00:50:08;2.90;;;2.70;;
479;SDS011;226;48.606;9.096;2023-08-31T00:52:36;3.37;;;2.80;;
479;SDS011;226;48.606;9.096;2023-08-31T00:55:05;5.80;;;2.70;;
479;SDS011;226;48.606;9.096;2023-08-31T00:57:34;5.93;;;2.57;;
479;SDS011;226;48.606;9.096;2023-08-31T01:00:02;5.10;;;2.77;;
479;SDS011;226;48.606;9.096;2023-08-31T01:02:34;2.40;;;2.20;;
479;SDS011;226;48.606;9.096;2023-08-31T01:05:18;4.87;;;3.03;;
479;SDS011;226;48.606;9.096;2023-08-31T01:07:58;7.70;;;2.70;;
479;SDS011;226;48.606;9.096;2023-08-31T01:10:40;4.47;;;2.80;;
479;SDS011;226;48.606;9.096;2023-08-31T01:13:15;3.50;;;2.70;;
479;SDS011;226;48.606;9.096;2023-08-31T01:15:51;3.80;;;2.43;;
479;SDS011;226;48.606;9.096;2023-08-31T01:18:23;6.23;;;3.47;;
479;SDS011;226;48.606;9.096;2023-08-31T01:20:55;3.50;;;2.80;;
479;SDS011;226;48.606;9.096;2023-08-31T01:23:30;3.13;;;2.90;;
479;SDS011;226;48.606;9.096;2023-08-31T01:26:12;3.50;;;2.40;;
479;SDS011;226;48.606;9.096;2023-08-31T01:28:40;2.57;;;2.37;;
479;SDS011;226;48.606;9.096;2023-08-31T01:31:08;6.63;;;3.50;;
479;SDS011;226;48.606;9.096;2023-08-31T01:33:36;4.70;;;3.00;;
479;SDS011;226;48.606;9.096;2023-08-31T01:36:06;7.20;;;3.33;;
479;SDS011;226;48.606;9.096;2023-08-31T01:38:40;6.70;;;3.40;;
479;SDS011;226;48.606;9.096;2023-08-31T01:41:16;5.80;;;4.00;;
479;SDS011;226;48.606;9.096;2023-08-31T01:43:47;11.07;;;3.30;;
479;SDS011;226;48.606;9.096;2023-08-31T01:46:16;4.57;;;2.20;;
479;SDS011;226;48.606;9.096;2023-08-31T01:48:44;3.37;;;3.07;;
479;SDS011;226;48.606;9.096;2023-08-31T01:51:12;4.67;;;3.50;;
479;SDS011;226;48.606;9.096;2023-08-31T01:53:40;5.20;;;3.40;;
479;SDS011;226;48.606;9.096;2023-08-31T01:56:09;3.10;;;2.80;;
479;SDS011;226;48.606;9.096;2023-08-31T01:58:37;5.17;;;3.53;;
479;SDS011;226;48.606;9.096;2023-08-31T02:01:06;4.03;;;2.60;;
479;SDS011;226;48.606;9.096;2023-08-31T02:03:34;5.37;;;3.70;;
479;SDS011;226;48.606;9.096;2023-08-31T02:06:02;4.17;;;3.20;;
479;SDS011;226;48.606;9.096;2023-08-31T02:08:31;12.03;;;3.27;;
479;SDS011;226;48.606;9.096;2023-08-31T02:11:00;5.70;;;3.00;;
479;SDS011;226;48.606;9.096;2023-08-31T02:13:29;4.57;;;3.10;;
479;SDS011;226;48.606;9.096;2023-08-31T02:15:57;3.17;;;2.47;;
479;SDS011;226;48.606;9.096;2023-08-31T02:18:25;12.50;;;3.40;;
479;SDS011;226;48.606;9.096;2023-08-31T02:20:53;7.23;;;3.73;;
479;SDS011;226;48.606;9.096;2023-08-31T02:23:22;4.67;;;2.63;;
479;SDS011;226;48.606;9.096;2023-08-31T02:25:50;2.90;;;2.70;;
479;SDS011;226;48.606;9.096;2023-08-31T02:28:18;4.87;;;4.20;;
479;SDS011;226;48.606;9.096;2023-08-31T02:30:56;3.90;;;3.00;;
479;SDS011;226;48.606;9.096;2023-08-31T02:33:26;2.90;;;2.70;;
479;SDS011;226;48.606;9.096;2023-08-31T02:35:54;4.00;;;2.90;;
479;SDS011;226;48.606;9.096;2023-08-31T02:38:22;3.83;;;3.03;;
479;SDS011;226;48.606;9.096;2023-08-31T02:40:50;7.10;;;3.10;;
479;SDS011;226;48.606;9.096;2023-08-31T02:43:18;3.30;;;2.83;;
479;SDS011;226;48.606;9.096;2023-08-31T02:45:48;4.60;;;3.07;;
479;SDS011;226;48.606;9.096;2023-08-31T02:48:16;6.20;;;3.60;;
479;SDS011;226;48.606;9.096;2023-08-31T02:50:44;4.50;;;3.33;;
479;SDS011;226;48.606;9.096;2023-08-31T02:53:12;5.00;;;3.90;;
479;SDS011;226;48.606;9.096;2023-08-31T02:55:41;3.20;;;2.63;;
479;SDS011;226;48.606;9.096;2023-08-31T02:58:10;3.93;;;3.20;;
479;SDS011;226;48.606;9.096;2023-08-31T03:00:38;4.60;;;3.30;;
479;SDS011;226;48.606;9.096;2023-08-31T03:03:10;4.10;;;3.57;;
479;SDS011;226;48.606;9.096;2023-08-31T03:05:39;3.63;;;2.77;;
479;SDS011;226;48.606;9.096;2023-08-31T03:08:07;3.30;;;3.00;;
479;SDS011;226;48.606;9.096;2023-08-31T03:10:35;2.70;;;2.50;;
479;SDS011;226;48.606;9.096;2023-08-31T03:13:03;3.40;;;3.10;;
479;SDS011;226;48.606;9.096;2023-08-31T03:15:32;6.27;;;3.63;;
479;SDS011;226;48.606;9.096;2023-08-31T03:18:01;3.70;;;3.00;;
479;SDS011;226;48.606;9.096;2023-08-31T03:20:30;5.43;;;3.00;;
479;SDS011;226;48.606;9.096;2023-08-31T03:22:58;3.53;;;3.10;;
479;SDS011;226;48.606;9.096;2023-08-31T03:25:27;3.80;;;3.23;;
479;SDS011;226;48.606;9.096;2023-08-31T03:27:55;4.40;;;3.37;;
479;SDS011;226;48.606;9.096;2023-08-31T03:30:23;4.03;;;3.73;;
479;SDS011;226;48.606;9.096;2023-08-31T03:32:51;7.37;;;4.23;;
479;SDS011;226;48.606;9.096;2023-08-31T03:35:19;6.60;;;4.00;;
479;SDS011;226;48.606;9.096;2023-08-31T03:37:54;5.57;;;3.63;;
479;SDS011;226;48.606;9.096;2023-08-31T03:40:22;5.07;;;4.37;;
479;SDS011;226;48.606;9.096;2023-08-31T03:42:50;4.13;;;2.63;;
479;SDS011;226;48.606;9.096;2023-08-31T03:45:20;3.50;;;3.20;;
479;SDS011;226;48.606;9.096;2023-08-31T03:47:48;14.13;;;2.80;;
479;SDS011;226;48.606;9.096;2023-08-31T03:50:16;3.37;;;3.07;;
479;SDS011;226;48.606;9.096;2023-08-31T03:52:44;3.17;;;2.87;;
479;SDS011;226;48.606;9.096;2023-08-31T03:55:14;10.00;;;3.07;;
479;SDS011;226;48.606;9.096;2023-08-31T03:57:42;4.90;;;3.07;;
479;SDS011;226;48.606;9.096;2023-08-31T04:00:11;6.43;;;4.10;;
479;SDS011;226;48.606;9.096;2023-08-31T04:02:41;8.20;;;4.80;;
479;SDS011;226;48.606;9.096;2023-08-31T04:05:09;6.10;;;3.20;;
479;SDS011;226;48.606;9.096;2023-08-31T04:07:37;5.13;;;3.30;;
479;SDS011;226;48.606;9.096;2023-08-31T04:10:06;4.83;;;2.93;;
479;SDS011;226;48.606;9.096;2023-08-31T04:12:36;3.23;;;2.83;;
479;SDS011;226;48.606;9.096;2023-08-31T04:15:06;5.17;;;3.00;;
479;SDS011;226;48.606;9.096;2023-08-31T04:17:35;3.30;;;3.00;;
479;SDS011;226;48.606;9.096;2023-08-31T04:20:03;2.83;;;2.63;;
479;SDS011;226;48.606;9.096;2023-08-31T04:22:33;3.50;;;3.27;;
479;SDS011;226;48.606;9.096;2023-08-31T04:25:01;5.20;;;2.40;;
479;SDS011;226;48.606;9.096;2023-08-31T04:27:29;4.43;;;3.03;;
479;SDS011;226;48.606;9.096;2023-08-31T04:30:00;5.17;;;2.93;;
479;SDS011;226;48.606;9.096;2023-08-31T04:32:29;3.20;;;2.90;;
479;SDS011;226;48.606;9.096;2023-08-31T04:34:57;3.10;;;2.80;;
479;SDS011;226;48.606;9.096;2023-08-31T04:37:25;4.23;;;3.37;;
479;SDS011;226;48.606;9.096;2023-08-31T04:39:53;8.10;;;3.70;;
479;SDS011;226;48.606;9.096;2023-08-31T04:42:21;6.57;;;3.20;;
479;SDS011;226;48.606;9.096;2023-08-31T04:44:50;6.27;;;3.90;;
479;SDS011;226;48.606;9.096;2023-08-31T04:47:19;4.97;;;3.20;;
479;SDS011;226;48.606;9.096;2023-08-31T04:49:47;5.47;;;4.30;;
479;SDS011;226;48.606;9.096;2023-08-31T04:52:15;5.00;;;2.53;;
479;SDS011;226;48.606;9.096;2023-08-31T04:54:43;3.90;;;2.70;;
479;SDS011;226;48.606;9.096;2023-08-31T04:57:12;3.60;;;3.30;;
479;SDS011;226;48.606;9.096;2023-08-31T04:59:40;3.90;;;3.13;;
479;SDS011;226;48.606;9.096;2023-08-31T05:02:08;5.27;;;3.33;;
479;SDS011;226;48.606;9.096;2023-08-31T05:04:37;7.03;;;3.10;;
479;SDS011;226;48.606;9.096;2023-08-31T05:07:05;7.20;;;3.63;;
479;SDS011;226;48.606;9.096;2023-08-31T05:09:33;5.40;;;3.47;;
479;SDS011;226;48.606;9.096;2023-08-31T05:12:02;6.30;;;3.80;;
479;SDS011;226;48.606;9.096;2023-08-31T05:14:30;5.60;;;3.60;;
479;SDS011;226;48.606;9.096;2023-08-31T05:16:59;4.17;;;3.10;;
479;SDS011;226;48.606;9.096;2023-08-31T05:19:27;7.27;;;3.80;;
479;SDS011;226;48.606;9.096;2023-08-31T05:21:58;3.57;;;2.83;;
479;SDS011;226;48.606;9.096;2023-08-31T05:24:26;5.30;;;3.53;;
479;SDS011;226;48.606;9.096;2023-08-31T05:26:54;3.27;;;3.00;;
479;SDS011;226;48.606;9.096;2023-08-31T05:29:22;5.43;;;3.33;;
479;SDS011;226;48.606;9.096;2023-08-31T05:31:51;4.07;;;2.80;;
479;SDS011;226;48.606;9.096;2023-08-31T05:34:20;3.17;;;2.97;;
479;SDS011;226;48.606;9.096;2023-08-31T05:36:49;3.10;;;2.80;;
479;SDS011;226;48.606;9.096;2023-08-31T05:39:18;4.13;;;3.83;;
479;SDS011;226;48.606;9.096;2023-08-31T05:41:49;7.00;;;2.87;;
479;SDS011;226;48.606;9.096;2023-08-31T05:44:17;4.20;;;3.40;;
479;SDS011;226;48.606;9.096;2023-08-31T05:46:45;3.60;;;2.90;;
479;SDS011;226;48.606;9.096;2023-08-31T05:49:13;4.63;;;3.10;;
479;SDS011;226;48.606;9.096;2023-08-31T05:51:41;5.53;;;3.23;;
479;SDS011;226;48.606;9.096;2023-08-31T05:54:09;6.80;;;3.13;;
479;SDS011;226;48.606;9.096;2023-08-31T05:56:40;3.67;;;3.10;;
479;SDS011;226;48.606;9.096;2023-08-31T05:59:09;7.63;;;3.77;;
479;SDS011;226;48.606;9.096;2023-08-31T06:01:37;7.53;;;3.33;;
479;SDS011;226;48.606;9.096;2023-08-31T06:04:05;8.03;;;3.63;;
479;SDS011;226;48.606;9.096;2023-08-31T06:06:33;6.93;;;3.60;;
479;SDS011;226;48.606;9.096;2023-08-31T06:09:01;4.00;;;3.40;;
479;SDS011;226;48.606;9.096;2023-08-31T06:11:29;3.23;;;2.80;;
479;SDS011;226;48.606;9.096;2023-08-31T06:13:59;8.20;;;2.57;;
479;SDS011;226;48.606;9.096;2023-08-31T06:16:27;7.93;;;3.17;;
479;SDS011;226;48.606;9.096;2023-08-31T06:18:55;6.10;;;4.03;;
479;SDS011;226;48.606;9.096;2023-08-31T06:21:23;4.30;;;3.07;;
479;SDS011;226;48.606;9.096;2023-08-31T06:23:51;10.20;;;3.20;;
479;SDS011;226;48.606;9.096;2023-08-31T06:26:19;4.40;;;3.00;;
479;SDS011;226;48.606;9.096;2023-08-31T06:28:47;5.40;;;3.60;;
479;SDS011;226;48.606;9.096;2023-08-31T06:31:18;4.83;;;3.10;;
479;SDS011;226;48.606;9.096;2023-08-31T06:33:46;3.50;;;3.20;;
479;SDS011;226;48.606;9.096;2023-08-31T06:36:14;4.30;;;3.90;;
479;SDS011;226;48.606;9.096;2023-08-31T06:38:42;4.80;;;3.50;;
479;SDS011;226;48.606;9.096;2023-08-31T06:41:11;3.77;;;3.40;;
479;SDS011;226;48.606;9.096;2023-08-31T06:43:39;3.47;;;3.17;;
479;SDS011;226;48.606;9.096;2023-08-31T06:46:07;5.60;;;3.80;;
479;SDS011;226;48.606;9.096;2023-08-31T06:48:51;4.50;;;3.57;;
479;SDS011;226;48.606;9.096;2023-08-31T06:51:19;11.40;;;2.70;;
479;SDS011;226;48.606;9.096;2023-08-31T06:53:50;4.47;;;3.10;;
479;SDS011;226;48.606;9.096;2023-08-31T06:56:18;4.50;;;3.40;;
479;SDS011;226;48.606;9.096;2023-08-31T06:58:46;4.63;;;3.70;;
479;SDS011;226;48.606;9.096;2023-08-31T07:01:14;6.00;;;3.67;;
479;SDS011;226;48.606;9.096;2023-08-31T07:03:43;5.00;;;3.73;;
479;SDS011;226;48.606;9.096;2023-08-31T07:06:12;11.47;;;3.03;;
479;SDS011;226;48.606;9.096;2023-08-31T07:08:40;3.57;;;2.80;;
479;SDS011;226;48.606;9.096;2023-08-31T07:11:11;3.43;;;2.83;;
479;SDS011;226;48.606;9.096;2023-08-31T07:13:39;4.57;;;3.23;;
479;SDS011;226;48.606;9.096;2023-08-31T07:16:07;5.80;;;3.33;;
479;SDS011;226;48.606;9.096;2023-08-31T07:18:36;9.80;;;3.03;;
479;SDS011;226;48.606;9.096;2023-08-31T07:21:04;3.97;;;3.20;;
479;SDS011;226;48.606;9.096;2023-08-31T07:23:34;4.57;;;3.03;;
479;SDS011;226;48.606;9.096;2023-08-31T07:26:02;3.37;;;2.80;;
479;SDS011;226;48.606;9.096;2023-08-31T07:28:31;5.60;;;3.33;;
479;SDS011;226;48.606;9.096;2023-08-31T07:31:02;5.37;;;2.63;;
479;SDS011;226;48.606;9.096;2023-08-31T07:33:31;5.90;;;3.30;;
479;SDS011;226;48.606;9.096;2023-08-31T07:36:02;8.10;;;4.30;;
479;SDS011;226;48.606;9.096;2023-08-31T07:38:34;3.13;;;2.80;;
479;SDS011;226;48.606;9.096;2023-08-31T07:41:02;7.03;;;3.00;;
479;SDS011;226;48.606;9.096;2023-08-31T07:43:31;5.40;;;3.40;;
479;SDS011;226;48.606;9.096;2023-08-31T07:45:59;5.47;;;3.27;;
479;SDS011;226;48.606;9.096;2023-08-31T07:48:27;4.30;;;3.43;;
479;SDS011;226;48.606;9.096;2023-08-31T07:50:55;4.77;;;4.33;;
479;SDS011;226;48.606;9.096;2023-08-31T07:53:24;10.03;;;3.47;;
479;SDS011;226;48.606;9.096;2023-08-31T07:55:56;7.80;;;3.10;;
479;SDS011;226;48.606;9.096;2023-08-31T07:58:24;16.63;;;3.67;;
479;SDS011;226;48.606;9.096;2023-08-31T08:00:53;3.80;;;2.77;;
479;SDS011;226;48.606;9.096;2023-08-31T08:03:22;8.03;;;2.97;;
479;SDS011;226;48.606;9.096;2023-08-31T08:05:50;4.70;;;2.63;;
479;SDS011;226;48.606;9.096;2023-08-31T08:08:18;6.07;;;3.57;;
479;SDS011;226;48.606;9.096;2023-08-31T08:10:47;8.00;;;2.83;;
479;SDS011;226;48.606;9.096;2023-08-31T08:13:20;3.47;;;2.30;;
479;SDS011;226;48.606;9.096;2023-08-31T08:15:48;12.93;;;2.63;;
479;SDS011;226;48.606;9.096;2023-08-31T08:18:16;6.40;;;3.60;;
479;SDS011;226;48.606;9.096;2023-08-31T08:20:46;4.40;;;2.53;;
479;SDS011;226;48.606;9.096;2023-08-31T08:23:15;4.27;;;2.40;;
479;SDS011;226;48.606;9.096;2023-08-31T08:25:43;4.17;;;2.60;;
479;SDS011;226;48.606;9.096;2023-08-31T08:28:11;5.37;;;2.97;;
479;SDS011;226;48.606;9.096;2023-08-31T08:30:41;11.80;;;3.60;;
479;SDS011;226;48.606;9.096;2023-08-31T08:33:09;4.33;;;2.97;;
479;SDS011;226;48.606;9.096;2023-08-31T08:35:38;5.40;;;2.40;;
479;SDS011;226;48.606;9.096;2023-08-31T08:38:06;11.47;;;2.53;;
479;SDS011;226;48.606;9.096;2023-08-31T08:40:34;4.40;;;2.10;;
479;SDS011;226;48.606;9.096;2023-08-31T08:43:03;2.50;;;2.30;;
479;SDS011;226;48.606;9.096;2023-08-31T08:45:35;4.97;;;2.50;;
479;SDS011;226;48.606;9.096;2023-08-31T08:48:07;7.40;;;2.80;;
479;SDS011;226;48.606;9.096;2023-08-31T08:50:36;18.57;;;2.70;;
479;SDS011;226;48.606;9.096;2023-08-31T08:53:05;3.60;;;2.00;;
479;SDS011;226;48.606;9.096;2023-08-31T08:55:33;5.77;;;2.20;;
479;SDS011;226;48.606;9.096;2023-08-31T08:58:02;5.53;;;2.57;;
479;SDS011;226;48.606;9.096;2023-08-31T09:00:30;5.57;;;2.50;;
479;SDS011;226;48.606;9.096;2023-08-31T09:02:59;6.63;;;2.57;;
479;SDS011;226;48.606;9.096;2023-08-31T09:05:31;6.10;;;2.67;;
479;SDS011;226;48.606;9.096;2023-08-31T09:08:00;5.20;;;2.90;;
479;SDS011;226;48.606;9.096;2023-08-31T09:10:38;6.43;;;2.30;;
479;SDS011;226;48.606;9.096;2023-08-31T09:13:08;4.10;;;2.43;;
479;SDS011;226;48.606;9.096;2023-08-31T09:15:41;5.07;;;2.23;;
479;SDS011;226;48.606;9.096;2023-08-31T09:18:14;6.20;;;2.70;;
479;SDS011;226;48.606;9.096;2023-08-31T09:20:45;7.50;;;2.50;;
479;SDS011;226;48.606;9.096;2023-08-31T09:23:14;3.10;;;2.70;;
479;SDS011;226;48.606;9.096;2023-08-31T09:25:44;4.73;;;2.30;;
479;SDS011;226;48.606;9.096;2023-08-31T09:28:15;1.93;;;1.83;;
479;SDS011;226;48.606;9.096;2023-08-31T09:30:44;6.80;;;2.03;;
479;SDS011;226;48.606;9.096;2023-08-31T09:33:14;2.27;;;2.10;;
479;SDS011;226;48.606;9.096;2023-08-31T09:35:51;6.33;;;2.17;;
479;SDS011;226;48.606;9.096;2023-08-31T09:38:21;2.97;;;2.23;;
479;SDS011;226;48.606;9.096;2023-08-31T09:40:49;2.07;;;1.90;;
479;SDS011;226;48.606;9.096;2023-08-31T09:43:20;3.90;;;2.40;;
479;SDS011;226;48.606;9.096;2023-08-31T09:45:50;4.83;;;3.00;;
479;SDS011;226;48.606;9.096;2023-08-31T09:48:19;5.17;;;1.70;;
479;SDS011;226;48.606;9.096;2023-08-31T09:50:51;5.70;;;2.23;;
479;SDS011;226;48.606;9.096;2023-08-31T09:53:20;3.07;;;1.87;;
479;SDS011;226;48.606;9.096;2023-08-31T09:55:48;7.33;;;2.93;;
479;SDS011;226;48.606;9.096;2023-08-31T09:58:18;4.50;;;2.20;;
479;SDS011;226;48.606;9.096;2023-08-31T10:00:48;4.20;;;2.37;;
479;SDS011;226;48.606;9.096;2023-08-31T10:03:17;3.20;;;1.80;;
479;SDS011;226;48.606;9.096;2023-08-31T10:05:48;1.67;;;1.37;;
479;SDS011;226;48.606;9.096;2023-08-31T10:08:18;4.50;;;2.20;;
479;SDS011;226;48.606;9.096;2023-08-31T10:10:46;5.07;;;2.03;;
479;SDS011;226;48.606;9.096;2023-08-31T10:13:14;3.77;;;2.10;;
479;SDS011;226;48.606;9.096;2023-08-31T10:15:44;3.77;;;1.70;;
479;SDS011;226;48.606;9.096;2023-08-31T10:18:13;6.73;;;2.00;;
479;SDS011;226;48.606;9.096;2023-08-31T10:20:42;4.70;;;2.10;;
479;SDS011;226;48.606;9.096;2023-08-31T10:23:13;2.53;;;2.10;;
479;SDS011;226;48.606;9.096;2023-08-31T10:28:40;3.50;;;2.10;;
479;SDS011;226;48.606;9.096;2023-08-31T10:31:09;3.97;;;2.23;;
479;SDS011;226;48.606;9.096;2023-08-31T10:33:43;3.73;;;2.00;;
479;SDS011;226;48.606;9.096;2023-08-31T10:36:12;9.90;;;2.90;;
479;SDS011;226;48.606;9.096;2023-08-31T10:38:44;9.60;;;2.53;;
479;SDS011;226;48.606;9.096;2023-08-31T10:41:20;11.63;;;2.43;;
479;SDS011;226;48.606;9.096;2023-08-31T10:43:50;4.43;;;2.00;;
479;SDS011;226;48.606;9.096;2023-08-31T10:46:18;7.23;;;2.10;;
479;SDS011;226;48.606;9.096;2023-08-31T10:48:55;3.57;;;2.50;;
479;SDS011;226;48.606;9.096;2023-08-31T10:51:25;3.40;;;2.10;;
479;SDS011;226;48.606;9.096;2023-08-31T10:54:09;3.30;;;2.03;;
479;SDS011;226;48.606;9.096;2023-08-31T10:56:52;7.30;;;2.90;;
479;SDS011;226;48.606;9.096;2023-08-31T10:59:41;4.83;;;2.23;;
479;SDS011;226;48.606;9.096;2023-08-31T11:02:10;1.77;;;1.63;;
479;SDS011;226;48.606;9.096;2023-08-31T11:04:54;6.53;;;2.33;;
479;SDS011;226;48.606;9.096;2023-08-31T11:07:23;1.80;;;1.70;;
479;SDS011;226;48.606;9.096;2023-08-31T11:10:05;1.77;;;1.67;;
479;SDS011;226;48.606;9.096;2023-08-31T11:12:41;6.97;;;2.33;;
479;SDS011;226;48.606;9.096;2023-08-31T11:15:11;1.80;;;1.60;;
479;SDS011;226;48.606;9.096;2023-08-31T11:17:40;3.57;;;2.00;;
479;SDS011;226;48.606;9.096;2023-08-31T11:20:09;3.20;;;2.13;;
479;SDS011;226;48.606;9.096;2023-08-31T11:22:45;3.67;;;2.03;;
479;SDS011;226;48.606;9.096;2023-08-31T11:25:17;5.73;;;1.60;;
479;SDS011;226;48.606;9.096;2023-08-31T11:27:52;6.30;;;2.53;;
479;SDS011;226;48.606;9.096;2023-08-31T11:30:22;4.53;;;2.17;;
479;SDS011;226;48.606;9.096;2023-08-31T11:32:50;2.70;;;2.17;;
479;SDS011;226;48.606;9.096;2023-08-31T11:35:20;5.80;;;2.00;;
479;SDS011;226;48.606;9.096;2023-08-31T11:37:49;2.73;;;2.00;;
479;SDS011;226;48.606;9.096;2023-08-31T11:40:20;2.47;;;2.17;;
479;SDS011;226;48.606;9.096;2023-08-31T11:42:49;3.73;;;2.20;;
479;SDS011;226;48.606;9.096;2023-08-31T11:45:17;4.10;;;1.83;;
479;SDS011;226;48.606;9.096;2023-08-31T11:47:46;9.53;;;2.03;;
479;SDS011;226;48.606;9.096;2023-08-31T11:50:16;4.17;;;1.63;;
479;SDS011;226;48.606;9.096;2023-08-31T11:52:45;4.47;;;2.20;;
479;SDS011;226;48.606;9.096;2023-08-31T11:55:15;2.63;;;1.53;;
479;SDS011;226;48.606;9.096;2023-08-31T11:57:49;4.80;;;1.83;;
479;SDS011;226;48.606;9.096;2023-08-31T12:00:18;4.40;;;2.00;;
479;SDS011;226;48.606;9.096;2023-08-31T12:02:54;1.77;;;1.67;;
479;SDS011;226;48.606;9.096;2023-08-31T12:05:25;4.97;;;2.40;;
479;SDS011;226;48.606;9.096;2023-08-31T12:07:53;2.73;;;2.53;;
479;SDS011;226;48.606;9.096;2023-08-31T12:10:23;6.07;;;2.37;;
479;SDS011;226;48.606;9.096;2023-08-31T12:12:53;4.57;;;1.93;;
479;SDS011;226;48.606;9.096;2023-08-31T12:15:22;3.83;;;1.93;;
479;SDS011;226;48.606;9.096;2023-08-31T12:17:57;2.60;;;1.93;;
479;SDS011;226;48.606;9.096;2023-08-31T12:20:25;1.90;;;1.73;;
479;SDS011;226;48.606;9.096;2023-08-31T12:22:54;8.57;;;2.57;;
479;SDS011;226;48.606;9.096;2023-08-31T12:25:22;3.07;;;1.80;;
479;SDS011;226;48.606;9.096;2023-08-31T12:27:50;4.13;;;1.90;;
479;SDS011;226;48.606;9.096;2023-08-31T12:30:20;3.03;;;1.77;;
479;SDS011;226;48.606;9.096;2023-08-31T12:32:48;3.10;;;2.23;;
479;SDS011;226;48.606;9.096;2023-08-31T12:35:16;6.83;;;3.57;;
479;SDS011;226;48.606;9.096;2023-08-31T12:37:44;6.40;;;2.00;;
479;SDS011;226;48.606;9.096;2023-08-31T12:40:12;2.20;;;2.00;;
479;SDS011;226;48.606;9.096;2023-08-31T12:42:41;2.57;;;1.50;;
479;SDS011;226;48.606;9.096;2023-08-31T12:45:11;8.70;;;2.83;;
479;SDS011;226;48.606;9.096;2023-08-31T12:47:39;8.00;;;2.20;;
479;SDS011;226;48.606;9.096;2023-08-31T12:50:07;2.30;;;2.10;;
479;SDS011;226;48.606;9.096;2023-08-31T12:52:36;5.20;;;2.07;;
479;SDS011;226;48.606;9.096;2023-08-31T12:55:10;2.20;;;2.00;;
479;SDS011;226;48.606;9.096;2023-08-31T12:57:38;1.97;;;1.80;;
479;SDS011;226;48.606;9.096;2023-08-31T13:00:08;4.40;;;1.73;;
479;SDS011;226;48.606;9.096;2023-08-31T13:02:41;2.00;;;1.57;;
479;SDS011;226;48.606;9.096;2023-08-31T13:05:11;1.87;;;1.43;;
479;SDS011;226;48.606;9.096;2023-08-31T13:07:39;3.20;;;1.93;;
479;SDS011;226;48.606;9.096;2023-08-31T13:10:07;5.17;;;1.60;;
479;SDS011;226;48.606;9.096;2023-08-31T13:12:36;5.97;;;3.93;;
479;SDS011;226;48.606;9.096;2023-08-31T13:15:05;4.80;;;2.07;;
479;SDS011;226;48.606;9.096;2023-08-31T13:17:34;3.70;;;2.30;;
479;SDS011;226;48.606;9.096;2023-08-31T13:20:05;5.10;;;2.23;;
479;SDS011;226;48.606;9.096;2023-08-31T13:22:34;2.90;;;1.70;;
479;SDS011;226;48.606;9.096;2023-08-31T13:25:04;2.83;;;1.73;;
479;SDS011;226;48.606;9.096;2023-08-31T13:27:32;3.03;;;1.97;;
479;SDS011;226;48.606;9.096;2023-08-31T13:30:00;3.97;;;2.00;;
479;SDS011;226;48.606;9.096;2023-08-31T13:32:32;2.90;;;1.40;;
479;SDS011;226;48.606;9.096;2023-08-31T13:35:00;5.43;;;2.30;;
479;SDS011;226;48.606;9.096;2023-08-31T13:37:30;5.63;;;2.00;;
479;SDS011;226;48.606;9.096;2023-08-31T13:39:58;2.13;;;1.60;;
479;SDS011;226;48.606;9.096;2023-08-31T13:42:31;7.10;;;1.60;;
479;SDS011;226;48.606;9.096;2023-08-31T13:45:01;2.37;;;1.50;;
479;SDS011;226;48.606;9.096;2023-08-31T13:47:30;3.60;;;2.03;;
479;SDS011;226;48.606;9.096;2023-08-31T13:49:59;1.40;;;1.30;;
479;SDS011;226;48.606;9.096;2023-08-31T13:52:27;3.37;;;1.70;;
479;SDS011;226;48.606;9.096;2023-08-31T13:54:57;2.57;;;1.60;;
479;SDS011;226;48.606;9.096;2023-08-31T13:57:25;3.77;;;2.13;;
479;SDS011;226;48.606;9.096;2023-08-31T13:59:53;2.90;;;1.60;;
479;SDS011;226;48.606;9.096;2023-08-31T14:02:21;4.20;;;1.50;;
479;SDS011;226;48.606;9.096;2023-08-31T14:04:49;3.20;;;2.10;;
479;SDS011;226;48.606;9.096;2023-08-31T14:07:20;2.20;;;1.43;;
479;SDS011;226;48.606;9.096;2023-08-31T14:09:48;3.80;;;1.83;;
479;SDS011;226;48.606;9.096;2023-08-31T14:12:18;3.83;;;1.83;;
479;SDS011;226;48.606;9.096;2023-08-31T14:14:47;3.00;;;2.53;;
479;SDS011;226;48.606;9.096;2023-08-31T14:17:15;2.13;;;1.73;;
479;SDS011;226;48.606;9.096;2023-08-31T14:19:43;3.27;;;1.90;;
479;SDS011;226;48.606;9.096;2023-08-31T14:22:12;4.40;;;1.80;;
479;SDS011;226;48.606;9.096;2023-08-31T14:24:40;3.23;;;1.70;;
479;SDS011;226;48.606;9.096;2023-08-31T14:27:10;4.00;;;1.97;;
479;SDS011;226;48.606;9.096;2023-08-31T14:29:40;2.80;;;1.90;;
479;SDS011;226;48.606;9.096;2023-08-31T14:32:08;2.40;;;1.87;;
479;SDS011;226;48.606;9.096;2023-08-31T14:34:36;9.23;;;2.10;;
479;SDS011;226;48.606;9.096;2023-08-31T14:37:04;2.43;;;1.67;;
479;SDS011;226;48.606;9.096;2023-08-31T14:39:32;3.53;;;1.60;;
479;SDS011;226;48.606;9.096;2023-08-31T14:42:00;2.50;;;2.00;;
479;SDS011;226;48.606;9.096;2023-08-31T14:44:29;3.30;;;1.70;;
479;SDS011;226;48.606;9.096;2023-08-31T14:46:58;1.90;;;1.67;;
479;SDS011;226;48.606;9.096;2023-08-31T14:49:26;3.80;;;1.73;;
479;SDS011;226;48.606;9.096;2023-08-31T14:51:54;5.10;;;2.00;;
479;SDS011;226;48.606;9.096;2023-08-31T14:54:23;6.70;;;2.13;;
479;SDS011;226;48.606;9.096;2023-08-31T14:56:51;3.13;;;1.57;;
479;SDS011;226;48.606;9.096;2023-08-31T14:59:19;6.50;;;2.03;;
479;SDS011;226;48.606;9.096;2023-08-31T15:01:48;3.80;;;1.53;;
479;SDS011;226;48.606;9.096;2023-08-31T15:04:17;5.90;;;2.07;;
479;SDS011;226;48.606;9.096;2023-08-31T15:06:45;5.23;;;1.53;;
479;SDS011;226;48.606;9.096;2023-08-31T15:09:14;2.73;;;1.70;;
479;SDS011;226;48.606;9.096;2023-08-31T15:11:42;1.47;;;1.37;;
479;SDS011;226;48.606;9.096;2023-08-31T15:14:11;3.40;;;1.87;;
479;SDS011;226;48.606;9.096;2023-08-31T15:16:39;3.23;;;1.97;;
479;SDS011;226;48.606;9.096;2023-08-31T15:19:07;7.37;;;1.50;;
479;SDS011;226;48.606;9.096;2023-08-31T15:21:36;3.43;;;2.13;;
479;SDS011;226;48.606;9.096;2023-08-31T15:24:05;5.00;;;2.20;;
479;SDS011;226;48.606;9.096;2023-08-31T15:26:34;3.10;;;2.30;;
479;SDS011;226;48.606;9.096;2023-08-31T15:29:02;4.70;;;2.60;;
479;SDS011;226;48.606;9.096;2023-08-31T15:31:31;4.37;;;1.70;;
479;SDS011;226;48.606;9.096;2023-08-31T15:33:59;4.23;;;2.20;;
479;SDS011;226;48.606;9.096;2023-08-31T15:36:27;4.60;;;2.30;;
479;SDS011;226;48.606;9.096;2023-08-31T15:38:56;4.20;;;2.10;;
479;SDS011;226;48.606;9.096;2023-08-31T15:41:25;3.60;;;2.17;;
479;SDS011;226;48.606;9.096;2023-08-31T15:43:55;13.03;;;3.60;;
479;SDS011;226;48.606;9.096;2023-08-31T15:46:23;4.57;;;2.53;;
479;SDS011;226;48.606;9.096;2023-08-31T15:48:51;3.37;;;2.00;;
479;SDS011;226;48.606;9.096;2023-08-31T15:51:19;2.17;;;1.97;;
479;SDS011;226;48.606;9.096;2023-08-31T15:53:47;4.27;;;2.90;;
479;SDS011;226;48.606;9.096;2023-08-31T15:56:17;9.83;;;3.10;;
479;SDS011;226;48.606;9.096;2023-08-31T15:58:45;6.83;;;2.50;;
479;SDS011;226;48.606;9.096;2023-08-31T16:01:13;3.50;;;2.10;;